createdAt,value
2023-11-01T00:01:31.765Z,95883.08
2023-11-01T00:04:00.271Z,95877.88
2023-11-01T00:06:28.570Z,95884.30
2023-11-01T00:08:57.453Z,95890.61
2023-11-01T00:11:25.851Z,95890.12
2023-11-01T00:13:54.107Z,95890.54
2023-11-01T00:16:22.207Z,95882.75
2023-11-01T00:18:50.757Z,95876.45
2023-11-01T00:21:18.776Z,95875.82
2023-11-01T00:23:47.344Z,95874.22
2023-11-01T00:26:15.796Z,95875.73
2023-11-01T00:28:45.439Z,95873.95
2023-11-01T00:31:13.494Z,95878.30
2023-11-01T00:33:41.660Z,95880.59
2023-11-01T00:36:10.153Z,95887.75
2023-11-01T00:38:38.353Z,95886.36
2023-11-01T00:41:06.699Z,95880.02
2023-11-01T00:43:34.923Z,95879.04
2023-11-01T00:46:03.094Z,95875.20
2023-11-01T00:48:31.636Z,95871.10
2023-11-01T00:50:59.739Z,95872.62
2023-11-01T00:53:27.849Z,95869.77
2023-11-01T00:55:55.952Z,95872.77
2023-11-01T00:58:24.353Z,95874.15
2023-11-01T01:00:52.406Z,95868.77
2023-11-01T01:03:20.724Z,95866.73
2023-11-01T01:05:49.020Z,95859.70
2023-11-01T01:08:17.522Z,95867.02
2023-11-01T01:10:45.624Z,95876.24
2023-11-01T01:13:13.804Z,95877.14
2023-11-01T01:15:42.099Z,95877.77
2023-11-01T01:18:10.087Z,95876.94
2023-11-01T01:20:38.078Z,95882.64
2023-11-01T01:23:06.166Z,95880.94
2023-11-01T01:25:34.545Z,95881.92
2023-11-01T01:28:02.675Z,95882.59
2023-11-01T01:30:30.796Z,95884.11
2023-11-01T01:32:59.254Z,95884.77
2023-11-01T01:35:27.520Z,95891.05
2023-11-01T01:37:55.732Z,95893.23
2023-11-01T01:40:23.693Z,95890.51
2023-11-01T01:42:51.841Z,95890.17
2023-11-01T01:45:20.133Z,95891.36
2023-11-01T01:47:48.326Z,95891.36
2023-11-01T01:50:16.487Z,95884.60
2023-11-01T01:52:44.550Z,95877.20
2023-11-01T01:55:12.639Z,95873.41
2023-11-01T01:57:40.755Z,95871.00
2023-11-01T02:00:09.279Z,95871.41
2023-11-01T02:02:40.434Z,95872.08
2023-11-01T02:05:09.829Z,95869.67
2023-11-01T02:07:37.941Z,95877.00
2023-11-01T02:10:07.016Z,95875.34
2023-11-01T02:12:35.502Z,95871.98
2023-11-01T02:15:04.218Z,95867.06
2023-11-01T02:17:32.381Z,95864.41
2023-11-01T02:20:01.769Z,95865.19
2023-11-01T02:22:29.975Z,95875.29
2023-11-01T02:24:58.243Z,95876.48
2023-11-01T02:27:26.995Z,95884.21
2023-11-01T02:29:55.017Z,95882.06
2023-11-01T02:32:29.290Z,95883.20
2023-11-01T02:34:58.119Z,95879.08
2023-11-01T02:37:26.217Z,95880.64
2023-11-01T02:39:54.387Z,95879.54
2023-11-01T02:42:22.700Z,95883.60
2023-11-01T02:44:50.913Z,95878.42
2023-11-01T02:47:18.894Z,95885.14
2023-11-01T02:49:46.956Z,95888.98
2023-11-01T02:52:14.958Z,95890.23
2023-11-01T02:54:43.120Z,95887.09
2023-11-01T02:57:11.237Z,95886.20
2023-11-01T02:59:39.374Z,95884.04
2023-11-01T03:02:07.517Z,95881.38
2023-11-01T03:04:35.651Z,95882.59
2023-11-01T03:07:03.758Z,95887.30
2023-11-01T03:09:31.908Z,95887.00
2023-11-01T03:12:00.169Z,95888.27
2023-11-01T03:14:28.234Z,95890.45
2023-11-01T03:16:56.364Z,95894.27
2023-11-01T03:19:24.418Z,95894.12
2023-11-01T03:21:53.376Z,95889.70
2023-11-01T03:24:22.090Z,95893.00
2023-11-01T03:26:50.404Z,95894.06
2023-11-01T03:29:18.459Z,95898.13
2023-11-01T03:31:46.477Z,95900.72
2023-11-01T03:34:14.998Z,95905.73
2023-11-01T03:36:43.837Z,95901.86
2023-11-01T03:39:12.025Z,95898.91
2023-11-01T03:41:41.252Z,95902.25
2023-11-01T03:44:09.995Z,95909.91
2023-11-01T03:46:38.194Z,95914.64
2023-11-01T03:49:06.267Z,95917.05
2023-11-01T03:51:34.478Z,95919.88
2023-11-01T03:54:02.750Z,95918.25
2023-11-01T03:56:31.398Z,95924.98
2023-11-01T03:58:59.967Z,95929.13
2023-11-01T04:01:28.130Z,95936.23
2023-11-01T04:03:56.281Z,95942.77
2023-11-01T04:06:24.398Z,95946.45
2023-11-01T04:08:52.520Z,95951.75
2023-11-01T04:11:20.778Z,95955.73
2023-11-01T04:13:49.357Z,95955.09
2023-11-01T04:16:17.531Z,95953.02
2023-11-01T04:18:45.708Z,95958.59
2023-11-01T04:21:13.650Z,95957.31
2023-11-01T04:23:41.639Z,95962.14
2023-11-01T04:26:09.867Z,95960.66
2023-11-01T04:28:37.972Z,95961.58
2023-11-01T04:31:06.041Z,95961.46
2023-11-01T04:33:34.201Z,95961.41
2023-11-01T04:36:02.300Z,95954.79
2023-11-01T04:38:30.487Z,95952.31
2023-11-01T04:40:58.435Z,95945.96
2023-11-01T04:43:26.430Z,95937.60
2023-11-01T04:45:54.688Z,95946.22
2023-11-01T04:48:23.174Z,95962.23
2023-11-01T04:50:51.634Z,95958.45
2023-11-01T04:53:20.256Z,95968.60
2023-11-01T04:55:48.601Z,95978.80
2023-11-01T04:58:16.689Z,95979.13
2023-11-01T05:00:44.774Z,95981.14
2023-11-01T05:03:12.973Z,95985.35
2023-11-01T05:05:41.163Z,95992.75
2023-11-01T05:08:09.515Z,95995.55
2023-11-01T05:10:37.572Z,96000.19
2023-11-01T05:13:07.224Z,96009.53
2023-11-01T05:15:35.882Z,96012.30
2023-11-01T05:18:05.606Z,96019.55
2023-11-01T05:20:33.796Z,96026.95
2023-11-01T05:23:02.106Z,96036.16
2023-11-01T05:25:30.866Z,96042.91
2023-11-01T05:28:00.072Z,96049.41
2023-11-01T05:30:28.200Z,96045.82
2023-11-01T05:32:56.508Z,96046.37
2023-11-01T05:35:24.703Z,96050.40
2023-11-01T05:37:53.334Z,96049.08
2023-11-01T05:40:21.393Z,96055.88
2023-11-01T05:42:49.824Z,96065.64
2023-11-01T05:45:18.812Z,96065.75
2023-11-01T05:47:54.280Z,96066.54
2023-11-01T05:50:27.158Z,96069.23
2023-11-01T05:52:56.881Z,96080.05
2023-11-01T05:55:33.219Z,96091.34
2023-11-01T05:58:12.601Z,96097.87
2023-11-01T06:00:40.770Z,96102.98
2023-11-01T06:03:09.328Z,96106.41
2023-11-01T06:05:40.277Z,96101.48
2023-11-01T06:08:10.452Z,96097.40
2023-11-01T06:10:38.607Z,96102.13
2023-11-01T06:13:09.555Z,96106.62
2023-11-01T06:15:38.272Z,96112.06
2023-11-01T06:18:06.490Z,96118.83
2023-11-01T06:20:38.052Z,96114.29
2023-11-01T06:23:06.219Z,96119.63
2023-11-01T06:25:34.412Z,96120.14
2023-11-01T06:28:02.551Z,96117.89
2023-11-01T06:30:30.515Z,96120.69
2023-11-01T06:32:58.760Z,96129.42
2023-11-01T06:35:27.031Z,96132.93
2023-11-01T06:37:55.364Z,96126.79
2023-11-01T06:40:23.576Z,96120.05
2023-11-01T06:42:51.576Z,96122.98
2023-11-01T06:45:19.664Z,96126.69
2023-11-01T06:47:48.260Z,96126.20
2023-11-01T06:50:16.496Z,96120.09
2023-11-01T06:52:46.707Z,96129.82
2023-11-01T06:55:14.869Z,96131.63
2023-11-01T06:57:42.990Z,96137.70
2023-11-01T07:00:11.781Z,96139.59
2023-11-01T07:02:39.839Z,96147.84
2023-11-01T07:05:08.159Z,96146.05
2023-11-01T07:07:36.279Z,96151.54
2023-11-01T07:10:04.774Z,96154.29
2023-11-01T07:12:32.823Z,96156.09
2023-11-01T07:15:00.927Z,96160.56
2023-11-01T07:17:29.543Z,96162.30
2023-11-01T07:19:57.791Z,96168.02
2023-11-01T07:22:26.497Z,96172.19
2023-11-01T07:24:54.963Z,96176.30
2023-11-01T07:27:23.058Z,96182.12
2023-11-01T07:29:51.220Z,96184.21
2023-11-01T07:32:19.757Z,96189.54
2023-11-01T07:34:48.556Z,96192.81
2023-11-01T07:37:16.625Z,96189.42
2023-11-01T07:39:44.876Z,96193.48
2023-11-01T07:42:12.957Z,96189.27
2023-11-01T07:44:41.054Z,96199.04
2023-11-01T07:47:09.156Z,96202.98
2023-11-01T07:49:37.315Z,96202.64
2023-11-01T07:52:06.103Z,96208.88
2023-11-01T07:54:34.358Z,96220.85
2023-11-01T07:57:02.470Z,96219.73
2023-11-01T07:59:30.779Z,96227.80
2023-11-01T08:02:02.016Z,96225.22
2023-11-01T08:04:30.683Z,96228.14
2023-11-01T08:06:59.517Z,96230.92
2023-11-01T08:09:28.087Z,96233.23
2023-11-01T08:11:56.340Z,96230.30
2023-11-01T08:14:24.367Z,96232.36
2023-11-01T08:16:52.431Z,96232.82
2023-11-01T08:19:20.480Z,96230.41
2023-11-01T08:21:48.508Z,96228.86
2023-11-01T08:24:16.721Z,96229.17
2023-11-01T08:26:44.977Z,96233.00
2023-11-01T08:29:13.042Z,96232.34
2023-11-01T08:31:41.657Z,96232.20
2023-11-01T08:34:09.793Z,96235.91
2023-11-01T08:36:37.934Z,96239.06
2023-11-01T08:39:06.419Z,96244.67
2023-11-01T08:41:34.500Z,96245.48
2023-11-01T08:44:02.504Z,96249.08
2023-11-01T08:46:30.825Z,96253.73
2023-11-01T08:49:00.210Z,96244.21
2023-11-01T08:51:28.269Z,96261.38
2023-11-01T08:54:00.000Z,96268.75
2023-11-01T08:56:28.362Z,96266.20
2023-11-01T08:58:56.725Z,96271.89
2023-11-01T09:01:25.971Z,96278.34
2023-11-01T09:03:54.246Z,96274.82
2023-11-01T09:06:22.335Z,96278.16
2023-11-01T09:08:50.463Z,96280.55
2023-11-01T09:11:18.605Z,96276.22
2023-11-01T09:13:46.804Z,96277.53
2023-11-01T09:16:15.001Z,96281.86
2023-11-01T09:18:43.246Z,96286.40
2023-11-01T09:21:11.279Z,96289.99
2023-11-01T09:23:39.500Z,96300.55
2023-11-01T09:26:10.612Z,96312.89
2023-11-01T09:28:38.904Z,96312.23
2023-11-01T09:31:07.117Z,96312.34
2023-11-01T09:33:36.649Z,96311.35
2023-11-01T09:36:05.615Z,96307.88
2023-11-01T09:38:33.757Z,96305.92
2023-11-01T09:41:02.664Z,96305.01
2023-11-01T09:43:30.652Z,96307.09
2023-11-01T09:45:58.787Z,96307.58
2023-11-01T09:48:26.929Z,96299.49
2023-11-01T09:50:55.271Z,96295.48
2023-11-01T09:53:23.398Z,96301.25
2023-11-01T09:55:51.950Z,96304.02
2023-11-01T09:58:20.979Z,96297.69
2023-11-01T10:00:49.645Z,96295.65
2023-11-01T10:03:20.820Z,96294.25
2023-11-01T10:05:49.097Z,96297.30
2023-11-01T10:08:17.380Z,96299.71
2023-11-01T10:10:45.460Z,96298.17
2023-11-01T10:13:13.763Z,96302.95
2023-11-01T10:15:41.852Z,96303.91
2023-11-01T10:18:09.929Z,96296.23
2023-11-01T10:20:38.158Z,96297.47
2023-11-01T10:23:06.225Z,96297.84
2023-11-01T10:25:34.765Z,96298.55
2023-11-01T10:28:02.931Z,96298.19
2023-11-01T10:30:31.109Z,96300.53
2023-11-01T10:33:00.676Z,96299.90
2023-11-01T10:35:28.980Z,96301.09
2023-11-01T10:38:01.544Z,96292.73
2023-11-01T10:40:31.084Z,96288.08
2023-11-01T10:43:04.060Z,96288.86
2023-11-01T10:45:33.328Z,96288.34
2023-11-01T10:48:04.674Z,96295.80
2023-11-01T10:50:35.779Z,96292.10
2023-11-01T10:53:04.386Z,96295.10
2023-11-01T10:55:32.720Z,96293.91
2023-11-01T10:58:00.911Z,96294.30
2023-11-01T11:00:36.449Z,96300.90
2023-11-01T11:03:16.978Z,96308.96
2023-11-01T11:05:45.353Z,96306.67
2023-11-01T11:08:13.339Z,96308.04
2023-11-01T11:10:43.391Z,96318.02
2023-11-01T11:13:11.939Z,96318.19
2023-11-01T11:15:49.457Z,96311.46
2023-11-01T11:18:49.894Z,96306.98
2023-11-01T11:21:45.853Z,96308.77
2023-11-01T11:24:32.523Z,96309.17
2023-11-01T11:27:00.590Z,96311.02
2023-11-01T11:29:46.994Z,96308.01
2023-11-01T11:32:18.351Z,96312.92
2023-11-01T11:34:47.015Z,96313.34
2023-11-01T11:37:18.054Z,96315.24
2023-11-01T11:40:04.147Z,96316.13
2023-11-01T11:42:49.474Z,96314.10
2023-11-01T11:45:28.053Z,96314.55
2023-11-01T11:47:56.823Z,96317.30
2023-11-01T11:50:25.165Z,96308.77
2023-11-01T11:52:53.179Z,96313.17
2023-11-01T11:55:40.783Z,96309.84
2023-11-01T11:58:09.010Z,96314.28
2023-11-01T12:00:37.441Z,96314.98
2023-11-01T12:03:05.782Z,96313.79
2023-11-01T12:05:34.973Z,96314.31
2023-11-01T12:08:02.984Z,96315.58
2023-11-01T12:10:31.071Z,96313.85
2023-11-01T12:12:59.344Z,96318.13
2023-11-01T12:15:27.914Z,96318.23
2023-11-01T12:18:11.499Z,96319.08
2023-11-01T12:20:39.786Z,96321.02
2023-11-01T12:23:08.275Z,96326.08
2023-11-01T12:25:36.240Z,96326.16
2023-11-01T12:28:05.500Z,96326.77
2023-11-01T12:30:33.781Z,96330.82
2023-11-01T12:33:01.808Z,96329.79
2023-11-01T12:35:29.997Z,96332.44
2023-11-01T12:37:58.206Z,96333.42
2023-11-01T12:40:27.349Z,96335.59
2023-11-01T12:43:09.057Z,96333.80
2023-11-01T12:45:37.247Z,96332.82
2023-11-01T12:48:06.481Z,96336.69
2023-11-01T12:50:36.694Z,96334.88
2023-11-01T12:53:05.044Z,96336.27
2023-11-01T12:55:33.092Z,96337.70
2023-11-01T12:58:02.743Z,96334.14
2023-11-01T13:00:31.891Z,96339.88
2023-11-01T13:03:02.713Z,96345.15
2023-11-01T13:05:31.545Z,96343.88
2023-11-01T13:08:02.236Z,96344.14
2023-11-01T13:10:30.209Z,96340.55
2023-11-01T13:12:58.218Z,96337.18
2023-11-01T13:15:27.267Z,96337.09
2023-11-01T13:17:55.419Z,96335.91
2023-11-01T13:20:23.364Z,96331.42
2023-11-01T13:22:53.392Z,96331.83
2023-11-01T13:25:22.710Z,96333.03
2023-11-01T13:27:51.477Z,96333.19
2023-11-01T13:30:19.656Z,96332.61
2023-11-01T13:32:47.841Z,96337.33
2023-11-01T13:35:16.155Z,96335.16
2023-11-01T13:37:44.155Z,96334.89
2023-11-01T13:40:12.264Z,96336.29
2023-11-01T13:42:40.203Z,96335.86
2023-11-01T13:45:09.417Z,96338.45
2023-11-01T13:47:37.818Z,96341.41
2023-11-01T13:50:06.418Z,96341.11
2023-11-01T13:52:36.901Z,96338.70
2023-11-01T13:55:05.493Z,96339.64
2023-11-01T13:57:33.563Z,96336.40
2023-11-01T14:00:01.760Z,96340.40
2023-11-01T14:02:39.425Z,96335.15
2023-11-01T14:05:07.740Z,96330.90
2023-11-01T14:07:35.963Z,96333.70
2023-11-01T14:10:05.578Z,96336.00
2023-11-01T14:12:33.665Z,96332.55
2023-11-01T14:15:01.738Z,96336.00
2023-11-01T14:17:30.238Z,96337.56
2023-11-01T14:19:58.221Z,96330.96
2023-11-01T14:22:26.275Z,96339.34
2023-11-01T14:24:54.597Z,96347.65
2023-11-01T14:27:23.517Z,96348.41
2023-11-01T14:29:52.144Z,96347.90
2023-11-01T14:32:20.301Z,96351.58
2023-11-01T14:34:48.338Z,96352.19
2023-11-01T14:37:16.382Z,96350.57
2023-11-01T14:39:44.705Z,96349.37
2023-11-01T14:42:12.892Z,96350.60
2023-11-01T14:44:41.128Z,96359.11
2023-11-01T14:47:09.174Z,96355.76
2023-11-01T14:49:37.151Z,96357.38
2023-11-01T14:52:05.299Z,96362.66
2023-11-01T14:54:33.331Z,96361.41
2023-11-01T14:57:01.642Z,96361.72
2023-11-01T14:59:29.835Z,96363.68
2023-11-01T15:01:57.916Z,96361.26
2023-11-01T15:04:26.261Z,96365.67
2023-11-01T15:06:54.385Z,96368.23
2023-11-01T15:09:22.394Z,96369.58
2023-11-01T15:11:50.354Z,96372.17
2023-11-01T15:14:18.647Z,96373.58
2023-11-01T15:16:47.076Z,96372.41
2023-11-01T15:19:15.102Z,96372.70
2023-11-01T15:21:44.372Z,96376.00
2023-11-01T15:24:15.083Z,96374.58
2023-11-01T15:26:43.413Z,96371.98
2023-11-01T15:29:13.071Z,96375.89
2023-11-01T15:31:41.191Z,96374.44
2023-11-01T15:34:09.706Z,96379.58
2023-11-01T15:36:38.097Z,96380.52
2023-11-01T15:39:06.347Z,96377.13
2023-11-01T15:41:34.650Z,96378.73
2023-11-01T15:44:02.787Z,96377.33
2023-11-01T15:46:30.868Z,96379.58
2023-11-01T15:48:58.858Z,96377.09
2023-11-01T15:51:26.879Z,96377.90
2023-11-01T15:53:55.013Z,96378.98
2023-11-01T15:56:23.150Z,96381.98
2023-11-01T15:58:51.301Z,96381.98
2023-11-01T16:01:20.982Z,96384.22
2023-11-01T16:03:49.198Z,96387.09
2023-11-01T16:06:17.704Z,96388.11
2023-11-01T16:08:46.267Z,96389.54
2023-11-01T16:11:14.500Z,96395.13
2023-11-01T16:13:42.729Z,96391.13
2023-11-01T16:16:11.480Z,96397.00
2023-11-01T16:18:40.133Z,96402.35
2023-11-01T16:21:11.125Z,96401.14
2023-11-01T16:23:39.119Z,96399.39
2023-11-01T16:26:07.343Z,96398.23
2023-11-01T16:28:35.445Z,96403.41
2023-11-01T16:31:03.749Z,96405.29
2023-11-01T16:33:32.133Z,96403.92
2023-11-01T16:36:00.605Z,96404.58
2023-11-01T16:38:30.676Z,96403.25
2023-11-01T16:41:01.294Z,96401.67
2023-11-01T16:43:29.969Z,96401.34
2023-11-01T16:45:58.438Z,96400.23
2023-11-01T16:48:26.697Z,96401.19
2023-11-01T16:50:54.756Z,96398.31
2023-11-01T16:53:24.746Z,96394.43
2023-11-01T16:56:00.081Z,96393.79
2023-11-01T16:58:29.210Z,96390.90
2023-11-01T17:01:00.006Z,96390.15
2023-11-01T17:03:30.694Z,96388.80
2023-11-01T17:06:03.981Z,96392.41
2023-11-01T17:08:32.462Z,96388.16
2023-11-01T17:11:03.420Z,96386.94
2023-11-01T17:13:31.785Z,96386.23
2023-11-01T17:15:59.916Z,96386.64
2023-11-01T17:18:28.075Z,96385.95
2023-11-01T17:20:56.370Z,96385.14
2023-11-01T17:23:26.542Z,96384.21
2023-11-01T17:26:00.414Z,96383.46
2023-11-01T17:28:37.902Z,96385.67
2023-11-01T17:31:14.220Z,96388.21
2023-11-01T17:33:45.509Z,96392.17
2023-11-01T17:36:20.471Z,96390.44
2023-11-01T17:38:48.686Z,96391.61
2023-11-01T17:41:35.651Z,96390.52
2023-11-01T17:44:03.787Z,96388.36
2023-11-01T17:46:31.928Z,96388.23
2023-11-01T17:49:02.739Z,96386.23
2023-11-01T17:51:33.917Z,96384.23
2023-11-01T17:54:03.684Z,96386.14
2023-11-01T17:56:34.461Z,96385.98
2023-11-01T17:59:02.770Z,96382.37
2023-11-01T18:01:32.233Z,96385.19
2023-11-01T18:04:00.343Z,96381.78
2023-11-01T18:06:28.471Z,96386.41
2023-11-01T18:08:58.601Z,96380.66
2023-11-01T18:11:26.871Z,96386.38
2023-11-01T18:13:56.157Z,96390.67
2023-11-01T18:16:27.988Z,96390.85
2023-11-01T18:18:57.653Z,96389.63
2023-11-01T18:21:38.738Z,96388.11
2023-11-01T18:24:14.466Z,96385.84
2023-11-01T18:26:47.544Z,96386.56
2023-11-01T18:29:17.956Z,96390.32
2023-11-01T18:31:46.199Z,96388.71
2023-11-01T18:34:14.685Z,96387.42
2023-11-01T18:36:47.715Z,96385.39
2023-11-01T18:39:22.918Z,96382.79
2023-11-01T18:41:51.336Z,96387.53
2023-11-01T18:44:35.696Z,96384.42
2023-11-01T18:47:06.802Z,96384.23
2023-11-01T18:50:05.857Z,96382.52
2023-11-01T18:52:35.830Z,96384.01
2023-11-01T18:55:11.083Z,96383.13
2023-11-01T18:57:46.605Z,96379.23
2023-11-01T19:00:25.505Z,96383.13
2023-11-01T19:03:08.565Z,96382.40
2023-11-01T19:05:42.582Z,96382.56
2023-11-01T19:08:12.468Z,96380.02
2023-11-01T19:10:43.884Z,96380.27
2023-11-01T19:13:12.474Z,96378.75
2023-11-01T19:15:40.804Z,96379.02
2023-11-01T19:18:17.684Z,96381.77
2023-11-01T19:20:49.809Z,96379.65
2023-11-01T19:23:20.820Z,96379.86
2023-11-01T19:25:51.613Z,96379.56
2023-11-01T19:28:30.821Z,96376.05
2023-11-01T19:31:05.150Z,96374.27
2023-11-01T19:33:35.032Z,96372.59
2023-11-01T19:36:10.643Z,96374.88
2023-11-01T19:38:46.334Z,96375.73
2023-11-01T19:41:19.995Z,96375.88
2023-11-01T19:43:51.028Z,96372.95
2023-11-01T19:46:19.194Z,96376.37
2023-11-01T19:48:48.003Z,96375.06
2023-11-01T19:51:17.472Z,96373.20
2023-11-01T19:53:52.556Z,96375.77
2023-11-01T19:56:21.689Z,96376.10
2023-11-01T19:58:53.203Z,96372.71
2023-11-01T20:01:28.460Z,96367.79
2023-11-01T20:03:56.778Z,96373.05
2023-11-01T20:06:25.543Z,96373.41
2023-11-01T20:08:53.673Z,96370.98
2023-11-01T20:11:22.035Z,96367.48
2023-11-01T20:13:53.468Z,96371.36
2023-11-01T20:16:30.626Z,96370.90
2023-11-01T20:19:07.438Z,96368.95
2023-11-01T20:21:39.508Z,96367.52
2023-11-01T20:24:09.297Z,96364.28
2023-11-01T20:26:46.759Z,96362.42
2023-11-01T20:29:14.850Z,96362.77
2023-11-01T20:31:43.244Z,96365.92
2023-11-01T20:34:11.929Z,96367.21
2023-11-01T20:36:45.805Z,96363.49
2023-11-01T20:39:13.935Z,96362.52
2023-11-01T20:41:42.265Z,96360.85
2023-11-01T20:44:10.289Z,96356.92
2023-11-01T20:46:38.387Z,96356.25
2023-11-01T20:49:06.490Z,96354.91
2023-11-01T20:51:34.594Z,96353.16
2023-11-01T20:54:03.634Z,96349.59
2023-11-01T20:56:36.325Z,96349.86
2023-11-01T20:59:04.648Z,96345.40
2023-11-01T21:01:32.827Z,96345.58
2023-11-01T21:04:00.969Z,96345.67
2023-11-01T21:06:29.092Z,96339.66
2023-11-01T21:08:59.464Z,96337.61
2023-11-01T21:11:32.374Z,96335.20
2023-11-01T21:14:00.488Z,96333.27
2023-11-01T21:16:28.653Z,96326.20
2023-11-01T21:18:56.695Z,96327.86
2023-11-01T21:21:25.033Z,96327.49
2023-11-01T21:23:53.339Z,96327.71
2023-11-01T21:26:21.590Z,96324.39
2023-11-01T21:28:49.764Z,96322.50
2023-11-01T21:31:17.881Z,96320.47
2023-11-01T21:33:46.625Z,96320.95
2023-11-01T21:36:14.831Z,96319.59
2023-11-01T21:38:43.217Z,96317.59
2023-11-01T21:41:11.333Z,96317.98
2023-11-01T21:43:49.941Z,96321.36
2023-11-01T21:46:22.210Z,96315.62
2023-11-01T21:48:51.277Z,96312.87
2023-11-01T21:51:19.791Z,96315.04
2023-11-01T21:53:47.925Z,96314.77
2023-11-01T21:56:20.155Z,96316.30
2023-11-01T21:58:49.235Z,96318.77
2023-11-01T22:01:20.741Z,96319.23
2023-11-01T22:03:50.342Z,96320.30
2023-11-01T22:06:28.464Z,96319.90
2023-11-01T22:09:05.911Z,96320.66
2023-11-01T22:11:34.942Z,96322.95
2023-11-01T22:14:16.705Z,96324.05
2023-11-01T22:16:44.788Z,96325.33
2023-11-01T22:19:33.274Z,96325.63
2023-11-01T22:22:11.019Z,96328.48
2023-11-01T22:24:40.835Z,96331.69
2023-11-01T22:27:10.139Z,96328.88
2023-11-01T22:29:45.551Z,96330.02
2023-11-01T22:32:19.608Z,96328.17
2023-11-01T22:34:51.239Z,96322.23
2023-11-01T22:37:24.255Z,96318.48
2023-11-01T22:39:52.837Z,96315.31
2023-11-01T22:42:22.376Z,96318.76
2023-11-01T22:44:50.749Z,96316.00
2023-11-01T22:47:19.185Z,96317.58
2023-11-01T22:49:47.443Z,96309.62
2023-11-01T22:52:15.405Z,96306.12
2023-11-01T22:54:43.477Z,96304.59
2023-11-01T22:57:11.830Z,96304.39
2023-11-01T22:59:39.981Z,96302.41
2023-11-01T23:02:13.392Z,96300.39
2023-11-01T23:04:42.904Z,96297.73
2023-11-01T23:07:11.787Z,96300.11
2023-11-01T23:09:40.162Z,96294.60
2023-11-01T23:12:10.251Z,96290.00
2023-11-01T23:14:38.458Z,96282.36
2023-11-01T23:17:08.506Z,96281.95
2023-11-01T23:19:36.875Z,96282.81
2023-11-01T23:22:05.435Z,96280.17
2023-11-01T23:24:33.445Z,96279.30
2023-11-01T23:27:05.262Z,96278.06
2023-11-01T23:29:40.059Z,96279.31
2023-11-01T23:32:12.629Z,96277.94
2023-11-01T23:34:51.787Z,96277.55
2023-11-01T23:37:23.583Z,96277.42
2023-11-01T23:39:51.718Z,96274.63
2023-11-01T23:42:20.131Z,96274.44
2023-11-01T23:44:53.889Z,96273.55
2023-11-01T23:47:24.265Z,96273.03
2023-11-01T23:49:58.412Z,96270.75
2023-11-01T23:52:32.388Z,96271.79
2023-11-01T23:55:00.642Z,96268.31
2023-11-01T23:57:32.016Z,96268.69
